createdAt,value
2023-04-29T00:00:10.416Z,7.33
2023-04-29T00:02:37.085Z,7.20
2023-04-29T00:05:05.467Z,7.11
2023-04-29T00:07:36.424Z,7.20
2023-04-29T00:10:03.326Z,7.28
2023-04-29T00:12:31.852Z,7.07
2023-04-29T00:14:58.380Z,7.13
2023-04-29T00:17:25.260Z,7.05
2023-04-29T00:19:52.039Z,7.10
2023-04-29T00:22:19.022Z,7.06
2023-04-29T00:24:45.671Z,6.97
2023-04-29T00:27:13.412Z,6.97
2023-04-29T00:29:39.930Z,6.90
2023-04-29T00:32:06.418Z,6.95
2023-04-29T00:34:32.902Z,6.88
2023-04-29T00:36:59.349Z,6.89
2023-04-29T00:39:25.946Z,6.95
2023-04-29T00:41:52.956Z,6.86
2023-04-29T00:44:19.437Z,6.92
2023-04-29T00:46:45.976Z,6.91
2023-04-29T00:49:13.025Z,6.90
2023-04-29T00:51:40.728Z,6.92
2023-04-29T00:54:08.101Z,7.00
2023-04-29T00:56:35.898Z,7.01
2023-04-29T00:59:03.571Z,6.99
2023-04-29T01:01:30.605Z,7.06
2023-04-29T01:03:58.274Z,7.08
2023-04-29T01:06:41.964Z,6.89
2023-04-29T01:09:22.823Z,6.92
2023-04-29T01:12:06.781Z,6.94
2023-04-29T01:14:34.855Z,6.96
2023-04-29T01:17:06.445Z,6.94
2023-04-29T01:19:48.670Z,6.93
2023-04-29T01:22:17.571Z,6.91
2023-04-29T01:24:44.035Z,6.91
2023-04-29T01:27:30.188Z,6.86
2023-04-29T01:30:02.541Z,6.87
2023-04-29T01:32:44.059Z,6.83
2023-04-29T01:35:38.354Z,6.91
2023-04-29T01:38:34.282Z,6.86
2023-04-29T01:41:17.199Z,6.88
2023-04-29T01:43:47.789Z,6.88
2023-04-29T01:46:16.517Z,6.78
2023-04-29T01:48:43.528Z,6.76
2023-04-29T01:51:10.013Z,6.68
2023-04-29T01:53:36.449Z,6.78
2023-04-29T01:56:02.909Z,6.69
2023-04-29T01:58:29.537Z,6.81
2023-04-29T02:00:56.066Z,6.73
2023-04-29T02:03:22.876Z,6.70
2023-04-29T02:05:50.544Z,6.62
2023-04-29T02:08:20.081Z,6.70
2023-04-29T02:10:56.469Z,6.74
2023-04-29T02:13:23.115Z,6.60
2023-04-29T02:15:49.633Z,6.58
2023-04-29T02:18:16.606Z,6.58
2023-04-29T02:20:43.519Z,6.70
2023-04-29T02:23:09.997Z,6.66
2023-04-29T02:25:37.161Z,6.54
2023-04-29T02:28:03.677Z,6.60
2023-04-29T02:30:30.742Z,6.64
2023-04-29T02:32:57.262Z,6.60
2023-04-29T02:35:23.751Z,6.58
2023-04-29T02:37:50.189Z,6.63
2023-04-29T02:40:16.821Z,6.71
2023-04-29T02:42:43.264Z,6.69
2023-04-29T02:45:10.514Z,6.58
2023-04-29T02:47:37.279Z,6.52
2023-04-29T02:50:04.824Z,6.54
2023-04-29T02:52:31.321Z,6.53
2023-04-29T02:54:57.930Z,6.58
2023-04-29T02:57:24.395Z,6.67
2023-04-29T02:59:51.491Z,6.56
2023-04-29T03:02:18.524Z,6.53
2023-04-29T03:04:45.622Z,6.48
2023-04-29T03:07:12.132Z,6.57
2023-04-29T03:09:38.645Z,6.55
2023-04-29T03:12:05.272Z,6.56
2023-04-29T03:14:31.716Z,6.58
2023-04-29T03:16:58.390Z,6.52
2023-04-29T03:19:24.971Z,6.60
2023-04-29T03:21:53.395Z,6.51
2023-04-29T03:24:20.476Z,6.53
2023-04-29T03:26:47.398Z,6.64
2023-04-29T03:29:13.889Z,6.53
2023-04-29T03:31:40.525Z,6.50
2023-04-29T03:34:07.100Z,6.58
2023-04-29T03:36:33.603Z,6.64
2023-04-29T03:39:00.352Z,6.68
2023-04-29T03:41:27.023Z,6.60
2023-04-29T03:43:54.943Z,6.59
2023-04-29T03:46:21.759Z,6.60
2023-04-29T03:48:48.337Z,6.62
2023-04-29T03:51:14.987Z,6.67
2023-04-29T03:53:41.628Z,6.69
2023-04-29T03:56:08.171Z,6.67
2023-04-29T03:58:34.669Z,6.77
2023-04-29T04:01:01.442Z,6.84
2023-04-29T04:03:28.361Z,6.75
2023-04-29T04:05:54.999Z,6.73
2023-04-29T04:08:21.504Z,6.68
2023-04-29T04:10:48.065Z,6.75
2023-04-29T04:13:14.593Z,6.85
2023-04-29T04:15:42.359Z,6.86
2023-04-29T04:18:08.891Z,6.82
2023-04-29T04:20:38.599Z,6.89
2023-04-29T04:23:05.593Z,6.90
2023-04-29T04:25:32.043Z,7.04
2023-04-29T04:27:58.593Z,7.22
2023-04-29T04:30:25.107Z,7.17
2023-04-29T04:32:51.713Z,7.25
2023-04-29T04:35:18.704Z,7.16
2023-04-29T04:37:45.525Z,7.26
2023-04-29T04:40:13.742Z,7.47
2023-04-29T04:42:40.331Z,7.49
2023-04-29T04:45:07.477Z,7.63
2023-04-29T04:47:33.974Z,7.55
2023-04-29T04:50:00.538Z,7.60
2023-04-29T04:52:27.143Z,7.73
2023-04-29T04:54:53.662Z,7.87
2023-04-29T04:57:20.203Z,8.00
2023-04-29T04:59:46.719Z,8.05
2023-04-29T05:02:13.227Z,8.02
2023-04-29T05:04:39.715Z,8.03
2023-04-29T05:07:06.178Z,8.06
2023-04-29T05:09:32.938Z,8.01
2023-04-29T05:11:59.601Z,8.21
2023-04-29T05:14:26.579Z,8.24
2023-04-29T05:16:53.510Z,8.30
2023-04-29T05:19:20.247Z,8.32
2023-04-29T05:21:46.745Z,8.50
2023-04-29T05:24:13.214Z,8.58
2023-04-29T05:26:39.698Z,8.70
2023-04-29T05:29:06.235Z,8.79
2023-04-29T05:31:33.475Z,8.71
2023-04-29T05:34:00.026Z,8.99
2023-04-29T05:36:28.026Z,9.03
2023-04-29T05:38:54.573Z,9.21
2023-04-29T05:41:21.432Z,9.09
2023-04-29T05:43:47.992Z,9.30
2023-04-29T05:46:14.545Z,9.33
2023-04-29T05:48:41.256Z,9.55
2023-04-29T05:51:07.837Z,9.57
2023-04-29T05:53:35.750Z,9.89
2023-04-29T05:56:06.544Z,10.03
2023-04-29T05:58:33.278Z,9.98
2023-04-29T06:01:00.264Z,10.07
2023-04-29T06:03:27.425Z,10.28
2023-04-29T06:05:54.198Z,11.13
2023-04-29T06:08:21.247Z,11.73
2023-04-29T06:10:47.896Z,12.49
2023-04-29T06:13:14.345Z,13.49
2023-04-29T06:15:40.927Z,13.77
2023-04-29T06:18:07.474Z,13.93
2023-04-29T06:20:36.084Z,14.15
2023-04-29T06:23:05.253Z,14.32
2023-04-29T06:25:31.816Z,14.96
2023-04-29T06:27:58.598Z,15.59
2023-04-29T06:30:25.281Z,15.80
2023-04-29T06:32:51.864Z,15.56
2023-04-29T06:35:18.542Z,16.11
2023-04-29T06:37:45.212Z,17.00
2023-04-29T06:40:12.000Z,17.10
2023-04-29T06:42:38.716Z,17.64
2023-04-29T06:45:05.833Z,17.03
2023-04-29T06:47:33.043Z,17.33
2023-04-29T06:49:59.667Z,17.54
2023-04-29T06:52:26.316Z,17.66
2023-04-29T06:54:52.852Z,18.14
2023-04-29T06:57:20.752Z,17.56
2023-04-29T06:59:47.331Z,17.18
2023-04-29T07:02:13.919Z,16.98
2023-04-29T07:04:41.076Z,18.34
2023-04-29T07:07:07.697Z,18.09
2023-04-29T07:09:34.213Z,18.68
2023-04-29T07:12:03.597Z,18.52
2023-04-29T07:14:30.500Z,17.53
2023-04-29T07:16:57.155Z,17.98
2023-04-29T07:19:23.837Z,18.13
2023-04-29T07:21:50.291Z,17.78
2023-04-29T07:24:16.868Z,18.39
2023-04-29T07:26:45.266Z,19.19
2023-04-29T07:29:11.831Z,18.72
2023-04-29T07:31:38.653Z,18.41
2023-04-29T07:34:05.990Z,19.15
2023-04-29T07:36:33.060Z,19.16
2023-04-29T07:38:59.907Z,19.26
2023-04-29T07:41:27.265Z,19.99
2023-04-29T07:43:53.899Z,18.72
2023-04-29T07:46:20.606Z,19.08
2023-04-29T07:48:47.196Z,19.55
2023-04-29T07:51:14.614Z,18.26
2023-04-29T07:53:41.674Z,18.16
2023-04-29T07:56:08.720Z,18.81
2023-04-29T07:58:35.413Z,18.49
2023-04-29T08:01:12.259Z,18.44
2023-04-29T08:03:41.433Z,18.25
2023-04-29T08:06:08.896Z,18.15
2023-04-29T08:08:35.804Z,17.93
2023-04-29T08:11:02.333Z,17.91
2023-04-29T08:13:28.922Z,17.52
2023-04-29T08:15:55.793Z,18.04
2023-04-29T08:18:22.418Z,17.95
2023-04-29T08:20:52.045Z,17.57
2023-04-29T08:23:18.756Z,18.05
2023-04-29T08:25:45.845Z,18.04
2023-04-29T08:28:12.366Z,17.16
2023-04-29T08:30:41.738Z,17.22
2023-04-29T08:33:08.967Z,17.34
2023-04-29T08:35:38.897Z,16.86
2023-04-29T08:38:06.750Z,17.07
2023-04-29T08:40:44.043Z,16.98
2023-04-29T08:43:10.830Z,17.31
2023-04-29T08:45:37.757Z,16.97
2023-04-29T08:48:04.816Z,16.96
2023-04-29T08:50:31.854Z,16.80
2023-04-29T08:52:58.600Z,16.62
2023-04-29T08:55:26.251Z,16.64
2023-04-29T08:57:55.106Z,16.98
2023-04-29T09:00:22.682Z,17.39
2023-04-29T09:02:54.185Z,17.17
2023-04-29T09:05:21.998Z,16.88
2023-04-29T09:07:48.906Z,16.85
2023-04-29T09:10:16.963Z,16.39
2023-04-29T09:12:43.643Z,16.52
2023-04-29T09:15:10.755Z,16.62
2023-04-29T09:17:42.656Z,16.66
2023-04-29T09:20:21.360Z,16.58
2023-04-29T09:22:52.730Z,16.56
2023-04-29T09:25:19.842Z,16.51
2023-04-29T09:27:46.808Z,16.83
2023-04-29T09:30:13.953Z,16.61
2023-04-29T09:32:41.145Z,16.61
2023-04-29T09:35:27.712Z,16.56
2023-04-29T09:38:08.980Z,16.67
2023-04-29T09:40:46.586Z,16.36
2023-04-29T09:43:23.992Z,16.54
2023-04-29T09:45:50.802Z,16.31
2023-04-29T09:48:17.445Z,16.40
2023-04-29T09:50:45.033Z,16.49
2023-04-29T09:53:12.077Z,16.29
2023-04-29T09:55:53.545Z,16.27
2023-04-29T09:58:31.449Z,16.47
2023-04-29T10:01:01.708Z,16.55
2023-04-29T10:03:33.880Z,16.73
2023-04-29T10:06:01.805Z,16.82
2023-04-29T10:08:32.393Z,17.13
2023-04-29T10:11:03.408Z,16.84
2023-04-29T10:13:30.615Z,16.54
2023-04-29T10:16:08.827Z,16.85
2023-04-29T10:18:37.754Z,16.74
2023-04-29T10:21:08.009Z,16.83
2023-04-29T10:23:34.602Z,16.70
2023-04-29T10:26:01.390Z,16.77
2023-04-29T10:28:32.550Z,17.01
2023-04-29T10:31:05.075Z,16.82
2023-04-29T10:33:33.834Z,16.89
2023-04-29T10:36:01.204Z,17.22
2023-04-29T10:38:41.776Z,17.58
2023-04-29T10:41:14.454Z,17.50
2023-04-29T10:43:41.050Z,17.63
2023-04-29T10:46:16.331Z,17.47
2023-04-29T10:48:46.857Z,17.60
2023-04-29T10:51:14.377Z,17.20
2023-04-29T10:54:01.225Z,17.34
2023-04-29T10:56:54.167Z,17.37
2023-04-29T10:59:22.870Z,17.24
2023-04-29T11:01:53.436Z,17.03
2023-04-29T11:04:21.694Z,17.12
2023-04-29T11:06:56.450Z,17.11
2023-04-29T11:09:31.312Z,17.00
2023-04-29T11:12:06.111Z,17.29
2023-04-29T11:14:43.032Z,17.11
2023-04-29T11:17:12.828Z,16.75
2023-04-29T11:19:47.125Z,17.00
2023-04-29T11:22:24.784Z,17.05
2023-04-29T11:24:57.330Z,17.13
2023-04-29T11:27:26.364Z,17.23
2023-04-29T11:29:58.714Z,17.12
2023-04-29T11:32:30.185Z,16.93
2023-04-29T11:35:08.947Z,17.00
2023-04-29T11:37:35.991Z,17.22
2023-04-29T11:40:08.721Z,17.58
2023-04-29T11:42:39.130Z,17.87
2023-04-29T11:45:06.925Z,17.97
2023-04-29T11:47:33.684Z,18.11
2023-04-29T11:50:04.958Z,18.38
2023-04-29T11:52:32.242Z,18.32
2023-04-29T11:55:00.208Z,18.30
2023-04-29T11:57:27.108Z,18.42
2023-04-29T11:59:53.844Z,18.62
2023-04-29T12:02:23.856Z,18.31
2023-04-29T12:04:51.400Z,18.59
2023-04-29T12:07:18.626Z,18.60
2023-04-29T12:09:46.277Z,18.81
2023-04-29T12:12:14.934Z,18.46
2023-04-29T12:14:42.355Z,18.72
2023-04-29T12:17:11.963Z,18.56
2023-04-29T12:19:40.255Z,17.88
2023-04-29T12:22:08.290Z,17.84
2023-04-29T12:24:39.273Z,18.30
2023-04-29T12:27:09.495Z,18.33
2023-04-29T12:29:40.605Z,18.03
2023-04-29T12:32:08.144Z,18.15
2023-04-29T12:34:34.847Z,17.82
2023-04-29T12:37:02.476Z,17.87
2023-04-29T12:39:30.096Z,18.27
2023-04-29T12:42:01.579Z,18.15
2023-04-29T12:44:36.043Z,18.27
2023-04-29T12:47:10.303Z,18.39
2023-04-29T12:49:46.905Z,18.44
2023-04-29T12:52:14.101Z,18.92
2023-04-29T12:54:43.369Z,18.73
2023-04-29T12:57:11.086Z,19.09
2023-04-29T12:59:38.416Z,18.92
2023-04-29T13:02:05.108Z,18.56
2023-04-29T13:04:31.803Z,18.31
2023-04-29T13:07:02.718Z,18.25
2023-04-29T13:09:30.505Z,18.27
2023-04-29T13:11:57.719Z,18.44
2023-04-29T13:14:24.275Z,18.34
2023-04-29T13:16:50.894Z,18.18
2023-04-29T13:19:29.589Z,18.15
2023-04-29T13:22:03.884Z,18.42
2023-04-29T13:24:30.690Z,18.66
2023-04-29T13:26:58.202Z,18.80
2023-04-29T13:29:24.838Z,18.57
2023-04-29T13:31:51.409Z,18.73
2023-04-29T13:34:18.040Z,18.71
2023-04-29T13:36:44.909Z,18.82
2023-04-29T13:39:11.516Z,18.92
2023-04-29T13:41:41.255Z,18.88
2023-04-29T13:44:23.583Z,18.75
2023-04-29T13:46:55.752Z,18.36
2023-04-29T13:49:55.790Z,18.42
2023-04-29T13:54:58.827Z,18.43
2023-04-29T13:58:30.308Z,18.76
2023-04-29T14:00:38.170Z,18.91
2023-04-29T14:05:33.366Z,18.75
2023-04-29T14:08:00.210Z,18.47
2023-04-29T14:10:26.781Z,18.62
2023-04-29T14:12:53.330Z,18.57
2023-04-29T14:15:19.863Z,18.74
2023-04-29T14:17:46.387Z,18.42
2023-04-29T14:20:13.536Z,18.24
2023-04-29T14:22:40.043Z,18.35
2023-04-29T14:25:08.005Z,18.50
2023-04-29T14:27:35.864Z,18.20
2023-04-29T14:30:02.406Z,18.47
2023-04-29T14:32:29.040Z,18.48
2023-04-29T14:34:55.947Z,18.33
2023-04-29T14:37:22.622Z,18.29
2023-04-29T14:39:49.243Z,18.42
2023-04-29T14:42:15.822Z,18.37
2023-04-29T14:44:42.402Z,18.27
2023-04-29T14:47:09.494Z,18.03
2023-04-29T14:49:36.202Z,17.71
2023-04-29T14:52:02.848Z,17.76
2023-04-29T14:54:29.499Z,17.98
2023-04-29T14:56:56.096Z,18.07
2023-04-29T14:59:22.665Z,18.07
2023-04-29T15:01:49.586Z,18.32
2023-04-29T15:04:16.703Z,18.25
2023-04-29T15:06:43.357Z,18.12
2023-04-29T15:09:09.925Z,18.18
2023-04-29T15:11:36.542Z,17.95
2023-04-29T15:14:03.151Z,17.69
2023-04-29T15:16:30.396Z,17.73
2023-04-29T15:18:57.014Z,17.83
2023-04-29T15:21:23.607Z,17.81
2023-04-29T15:23:50.193Z,17.59
2023-04-29T15:26:16.851Z,17.68
2023-04-29T15:28:45.661Z,17.87
2023-04-29T15:31:12.702Z,18.06
2023-04-29T15:33:39.301Z,17.78
2023-04-29T15:36:06.815Z,17.72
2023-04-29T15:38:33.332Z,17.80
2023-04-29T15:41:01.497Z,17.71
2023-04-29T15:43:28.676Z,17.72
2023-04-29T15:45:55.903Z,17.78
2023-04-29T15:48:22.452Z,17.77
2023-04-29T15:50:48.931Z,17.56
2023-04-29T15:53:15.585Z,17.49
2023-04-29T15:55:42.059Z,17.62
2023-04-29T15:58:08.638Z,17.59
2023-04-29T16:00:35.121Z,17.51
2023-04-29T16:03:01.680Z,17.54
2023-04-29T16:05:28.906Z,17.56
2023-04-29T16:07:55.435Z,17.52
2023-04-29T16:10:22.078Z,17.43
2023-04-29T16:12:49.045Z,17.48
2023-04-29T16:15:15.843Z,17.49
2023-04-29T16:17:49.373Z,17.34
2023-04-29T16:20:17.286Z,17.33
2023-04-29T16:22:43.967Z,17.32
2023-04-29T16:25:11.514Z,17.26
2023-04-29T16:27:38.001Z,17.07
2023-04-29T16:30:05.385Z,17.19
2023-04-29T16:32:33.126Z,17.24
2023-04-29T16:35:01.493Z,17.21
2023-04-29T16:37:28.664Z,17.32
2023-04-29T16:39:55.519Z,17.29
2023-04-29T16:42:22.070Z,17.20
2023-04-29T16:44:48.539Z,17.15
2023-04-29T16:47:15.323Z,17.08
2023-04-29T16:49:42.519Z,17.08
2023-04-29T16:52:09.261Z,17.09
2023-04-29T16:54:36.621Z,17.07
2023-04-29T16:57:03.196Z,17.02
2023-04-29T16:59:30.440Z,16.92
2023-04-29T17:01:57.279Z,16.91
2023-04-29T17:04:23.990Z,17.06
2023-04-29T17:06:51.017Z,16.99
2023-04-29T17:09:17.868Z,16.91
2023-04-29T17:11:44.430Z,16.72
2023-04-29T17:14:11.176Z,16.29
2023-04-29T17:16:37.881Z,16.04
2023-04-29T17:19:04.498Z,15.85
2023-04-29T17:21:32.465Z,15.79
2023-04-29T17:23:59.217Z,15.78
2023-04-29T17:26:25.953Z,15.67
2023-04-29T17:28:52.763Z,15.64
2023-04-29T17:31:24.884Z,15.55
2023-04-29T17:34:04.984Z,15.58
2023-04-29T17:36:33.118Z,15.49
2023-04-29T17:38:59.782Z,15.45
2023-04-29T17:41:26.304Z,15.30
2023-04-29T17:43:53.249Z,15.43
2023-04-29T17:46:19.968Z,15.37
2023-04-29T17:48:46.554Z,15.37
2023-04-29T17:51:13.318Z,15.50
2023-04-29T17:53:39.857Z,15.33
2023-04-29T17:56:06.459Z,15.34
2023-04-29T17:58:33.011Z,15.50
2023-04-29T18:00:59.525Z,15.59
2023-04-29T18:03:27.543Z,15.54
2023-04-29T18:05:54.215Z,15.65
2023-04-29T18:08:21.245Z,15.58
2023-04-29T18:10:47.757Z,15.49
2023-04-29T18:13:14.388Z,15.52
2023-04-29T18:15:40.890Z,15.53
2023-04-29T18:18:08.261Z,15.59
2023-04-29T18:20:35.362Z,15.61
2023-04-29T18:23:01.858Z,15.48
2023-04-29T18:25:28.347Z,15.59
2023-04-29T18:28:07.776Z,15.46
2023-04-29T18:30:42.300Z,15.32
2023-04-29T18:33:09.006Z,15.44
2023-04-29T18:35:35.553Z,15.50
2023-04-29T18:38:02.427Z,15.50
2023-04-29T18:40:29.200Z,15.53
2023-04-29T18:42:55.726Z,15.58
2023-04-29T18:45:22.829Z,15.36
2023-04-29T18:47:49.545Z,15.47
2023-04-29T18:50:16.109Z,15.41
2023-04-29T18:52:42.610Z,15.42
2023-04-29T18:55:09.442Z,15.32
2023-04-29T18:57:35.992Z,15.37
2023-04-29T19:00:03.846Z,15.28
2023-04-29T19:02:30.640Z,15.39
2023-04-29T19:04:57.326Z,15.36
2023-04-29T19:07:23.925Z,15.31
2023-04-29T19:09:50.563Z,15.19
2023-04-29T19:12:17.052Z,15.36
2023-04-29T19:14:43.544Z,15.23
2023-04-29T19:17:10.729Z,15.28
2023-04-29T19:19:37.216Z,15.37
2023-04-29T19:22:05.261Z,15.24
2023-04-29T19:24:32.711Z,15.24
2023-04-29T19:26:59.170Z,15.18
2023-04-29T19:29:25.737Z,15.21
2023-04-29T19:31:52.997Z,15.15
2023-04-29T19:34:19.628Z,15.27
2023-04-29T19:36:46.195Z,15.22
2023-04-29T19:39:14.459Z,15.20
2023-04-29T19:41:41.127Z,15.15
2023-04-29T19:44:07.632Z,15.11
2023-04-29T19:46:34.345Z,15.11
2023-04-29T19:49:01.825Z,14.84
2023-04-29T19:51:28.490Z,14.76
2023-04-29T19:53:56.717Z,14.72
2023-04-29T19:56:23.352Z,14.54
2023-04-29T19:58:50.404Z,14.47
2023-04-29T20:01:17.346Z,14.52
2023-04-29T20:03:43.988Z,14.34
2023-04-29T20:06:11.010Z,14.43
2023-04-29T20:08:37.698Z,14.35
2023-04-29T20:11:04.714Z,14.33
2023-04-29T20:13:31.247Z,14.20
2023-04-29T20:15:57.882Z,14.14
2023-04-29T20:18:25.113Z,14.19
2023-04-29T20:20:51.754Z,14.24
2023-04-29T20:23:18.470Z,14.18
2023-04-29T20:25:45.014Z,14.15
2023-04-29T20:28:11.634Z,14.19
2023-04-29T20:30:38.242Z,14.21
2023-04-29T20:33:05.839Z,14.20
2023-04-29T20:35:33.509Z,14.23
2023-04-29T20:38:00.318Z,14.27
2023-04-29T20:40:26.798Z,14.26
2023-04-29T20:42:53.277Z,14.22
2023-04-29T20:45:19.739Z,14.25
2023-04-29T20:47:46.828Z,14.39
2023-04-29T20:50:13.414Z,14.40
2023-04-29T20:52:40.376Z,14.54
2023-04-29T20:55:06.912Z,14.56
2023-04-29T20:57:33.447Z,14.49
2023-04-29T20:59:59.987Z,14.47
2023-04-29T21:02:26.459Z,14.40
2023-04-29T21:04:52.976Z,14.30
2023-04-29T21:07:19.651Z,14.23
2023-04-29T21:09:48.562Z,14.22
2023-04-29T21:12:15.271Z,14.11
2023-04-29T21:14:42.728Z,13.90
2023-04-29T21:17:09.419Z,14.06
2023-04-29T21:19:37.466Z,14.02
2023-04-29T21:22:04.519Z,13.99
2023-04-29T21:24:31.527Z,13.98
2023-04-29T21:26:58.204Z,13.95
2023-04-29T21:29:24.685Z,13.85
2023-04-29T21:31:51.249Z,13.76
2023-04-29T21:34:17.873Z,13.69
2023-04-29T21:36:44.349Z,13.71
2023-04-29T21:39:11.671Z,13.67
2023-04-29T21:41:39.153Z,13.65
2023-04-29T21:44:06.780Z,13.44
2023-04-29T21:46:34.454Z,13.45
2023-04-29T21:49:01.410Z,13.50
2023-04-29T21:51:28.989Z,13.43
2023-04-29T21:53:55.538Z,13.33
2023-04-29T21:56:24.423Z,13.31
2023-04-29T21:58:51.047Z,13.21
2023-04-29T22:01:27.044Z,13.23
2023-04-29T22:03:54.989Z,13.32
2023-04-29T22:06:21.512Z,13.37
2023-04-29T22:08:48.553Z,13.29
2023-04-29T22:11:15.155Z,13.10
2023-04-29T22:13:42.040Z,13.14
2023-04-29T22:16:08.686Z,13.27
2023-04-29T22:18:35.468Z,13.18
2023-04-29T22:21:02.015Z,13.26
2023-04-29T22:23:28.571Z,13.16
2023-04-29T22:25:55.077Z,13.19
2023-04-29T22:28:21.629Z,13.15
2023-04-29T22:30:48.123Z,13.16
2023-04-29T22:33:15.158Z,13.25
2023-04-29T22:35:41.711Z,13.22
2023-04-29T22:38:08.238Z,13.13
2023-04-29T22:40:35.661Z,13.13
2023-04-29T22:43:03.517Z,13.18
2023-04-29T22:45:30.020Z,13.03
2023-04-29T22:47:56.630Z,13.13
2023-04-29T22:50:23.139Z,13.09
2023-04-29T22:52:49.636Z,12.91
2023-04-29T22:55:16.238Z,12.92
2023-04-29T22:57:42.821Z,12.86
2023-04-29T23:00:09.888Z,12.81
2023-04-29T23:02:36.515Z,12.49
2023-04-29T23:05:03.739Z,12.06
2023-04-29T23:07:30.344Z,11.93
2023-04-29T23:09:57.126Z,11.95
2023-04-29T23:12:24.756Z,11.96
2023-04-29T23:14:51.348Z,11.95
2023-04-29T23:17:17.909Z,11.95
2023-04-29T23:19:44.466Z,11.91
2023-04-29T23:22:10.969Z,11.96
2023-04-29T23:24:38.263Z,11.95
2023-04-29T23:27:04.794Z,11.80
2023-04-29T23:29:35.135Z,11.73
2023-04-29T23:32:01.653Z,11.73
2023-04-29T23:34:28.171Z,11.82
2023-04-29T23:36:54.696Z,11.83
2023-04-29T23:39:21.279Z,11.72
2023-04-29T23:41:47.777Z,11.71
2023-04-29T23:44:14.281Z,11.69
2023-04-29T23:46:40.880Z,11.71
2023-04-29T23:49:07.403Z,11.71
2023-04-29T23:51:34.097Z,11.81
2023-04-29T23:54:00.917Z,11.86
2023-04-29T23:56:29.051Z,11.88
2023-04-29T23:58:55.694Z,12.01
